AirNav   Air Wisconsin pilot careers
 
 532 users online  

5TA5 Creasy Airport
Santa Fe, Texas, USA

GOING TO SANTA FE?


FAA INFORMATION EFFECTIVE 08 NOVEMBER 2018

Location

FAA Identifier: 5TA5
Lat/Long: 29-20-09.8500N / 095-06-54.7440W
29-20.164167N / 095-06.912400W
29.3360694 / -95.1152067
(estimated)
Elevation: 23 ft. / 7 m (estimated)
Variation: 06E (1985)
From city: 3 miles SW of SANTA FE, TX
Time zone: UTC -6 (UTC -5 during Daylight Saving Time)
Zip code: 77517

Airport Operations

Airport use: Private use. Permission required prior to landing
Activation date: 07/1981
Control tower: no
ARTCC: HOUSTON CENTER
FSS: MONTGOMERY COUNTY FLIGHT SERVICE STATION
FOR FP FILING CALL CXO FSS 1-800-833-5602.
Attendance: MON-FRI 1800-0700, ALL SAT-SUN 24 HOURS/DAY
Wind indicator: yes
Segmented circle: no

Airport Communications

WX ASOS at LVJ (13 nm NW): 118.525 (281-992-1853)
WX ASOS at GLS (14 nm E): 119.275 (409-740-9248)

Nearby radio navigation aids

VOR radial/distance  VOR name  Freq  Var
VUHr281/13.6SCHOLES VOR/DME113.0006E
HUBr151/20.9HOBBY VOR/DME117.1005E
MHFr230/23.0TRINITY VOR/DME113.6007E
IAHr157/39.1HUMBLE VORTAC116.6005E

 
NDB name  Hdg/Dist  Freq  Var  ID
GALVESTON262/18.820608EGLS --. .-.. ...
NIXIN167/39.832605EBVP -... ...- .--.

Airport Services

Runway Information

Runway 12/30

Dimensions: 2600 x 150 ft. / 792 x 46 m
Surface: turf
RUNWAY 12  RUNWAY 30
Traffic pattern: rightleft
Obstructions: none30 ft. pline, marked

Airport Ownership and Management from official FAA records

Ownership: Privately-owned
Owner: WILLIAM K. CREASY
13222 VACEK RD
SANTA FE, TX 77510
Phone 409-939-7454
Manager: WILLIAM K. CREASY
13222 VACEK RD
SANTA FE, TX 77510
Phone 409-939-7454

Airport Operational Statistics

Aircraft based on the field: 2
Single engine airplanes: 2
    

Instrument Procedures

There are no published instrument procedures at 5TA5.

Some nearby airports with instrument procedures:

KLVJ - Pearland Regional Airport (13 nm NW)
KGLS - Scholes International Airport at Galveston (14 nm E)
KEFD - Ellington Airport (16 nm N)
T41 - La Porte Municipal Airport (20 nm N)
KHOU - William P Hobby Airport (20 nm NW)
 
Loc | Ops | Rwys | IFR | FBO | Links
Com | Nav | Svcs | Stats | Notes


 
Area around 5TA5 (Creasy Airport)
 
Road maps at: MapQuest Bing Google
 
Aerial photo
No photo
 
Sectional chart

 
Airport distance calculator
Flying to Creasy Airport? Find the distance to fly.

From to 5TA5

Sunrise and sunset
Times for 17-Nov-2018
 Local
(UTC-6)
 Zulu
(UTC)
Morning civil twilight06:2212:22
Sunrise06:4712:47
Sunset17:2423:24
Evening civil twilight17:4923:49

Current date and time
Zulu (UTC)  17-Nov-2018 12:20:12
Local (UTC-6)  17-Nov-2018 06:20:12
 
METAR
KLVJ 
13nm NW 
171153Z AUTO 00000KT 9SM CLR 09/08 A3017 RMK AO2 SLP214 T00890083 10094 20083 53003
KGLS 
14nm E 
171152Z 00000KT 10SM CLR 13/12 A3016 RMK AO2 SLP214 T01330122 10156 20122 53004
KEFD 
16nm N 
171150Z 00000KT 10SM SCT045 BKN250 09/08 A3017
KHOU 
20nm NW 
171153Z 11004KT 10SM SCT045 BKN250 09/08 A3015 RMK AO2 SLP214 T00940083 10111 20089 53004
KAXH 
21nm NW 
171155Z AUTO 00000KT 10SM CLR 07/06 A3016 RMK AO2 T00730056 10075 20056
KLBX 
23nm SW 
171200Z AUTO 00000KT 1 1/4SM BR SCT048 09/09 A3015 RMK AO2 T00940094
TAF
KGLS 
14nm E 
171120Z 1712/1812 09005KT P6SM FEW030 SCT250 FM171300 15005KT P6SM SCT030 BKN250 FM171700 13008KT P6SM FEW030 SCT250 FM180600 13008KT P6SM SCT025 BKN050
KEFD 
16nm N 
171200Z 1712/1818 VRB06KT 9999 FEW025 QNH3008INS BECMG 1812/1813 VRB06KT 9000 BR FEW020 QNH3016INS BECMG 1815/1816 VRB06KT 9999 NSW FEW020 QNH3015INS TX21/1720Z TN09/1712Z
KHOU 
20nm NW 
171120Z 1712/1812 00000KT P6SM FEW030 BKN250 FM171600 15007KT P6SM SCT040 BKN250 FM180400 12004KT P6SM FEW020 SCT040 FM180700 VRB04KT P6SM BKN025 BKN040
NOTAMs
Click for the latest NOTAMs
NOTAMs are issued by the DoD/FAA and will open in a separate window not controlled by AirNav.

 

 
 

Would you like to see your business listed on this page?

 If your business provides an interesting product or service to pilots, flight crews, aircraft, or users of the Creasy Airport, you should consider listing it here.  To start the listing process, click on the button below
 
Add a business
 

Other Pages about Creasy Airport

Update a link
 
Copyright © AirNav, LLC. All rights reserved. Privacy Policy  Contact